sensor_id;sensor_type;location;lat;lon;timestamp;temperature;humidity
19892;DHT22;10108;50.142;8.724;2024-01-07T00:01:30;7.40;99.90
19892;DHT22;10108;50.142;8.724;2024-01-07T00:03:56;7.40;99.90
19892;DHT22;10108;50.142;8.724;2024-01-07T00:06:22;7.40;99.90
19892;DHT22;10108;50.142;8.724;2024-01-07T00:08:48;7.40;99.90
19892;DHT22;10108;50.142;8.724;2024-01-07T00:11:14;7.50;99.90
19892;DHT22;10108;50.142;8.724;2024-01-07T00:13:41;7.50;99.90
19892;DHT22;10108;50.142;8.724;2024-01-07T00:16:07;7.50;99.90
19892;DHT22;10108;50.142;8.724;2024-01-07T00:18:33;7.40;99.90
19892;DHT22;10108;50.142;8.724;2024-01-07T00:21:00;7.40;99.90
19892;DHT22;10108;50.142;8.724;2024-01-07T00:23:26;7.40;99.90
19892;DHT22;10108;50.142;8.724;2024-01-07T00:25:52;7.40;99.90
19892;DHT22;10108;50.142;8.724;2024-01-07T00:28:18;7.40;99.90
19892;DHT22;10108;50.142;8.724;2024-01-07T00:30:44;7.40;99.90
19892;DHT22;10108;50.142;8.724;2024-01-07T00:33:11;7.40;99.90
19892;DHT22;10108;50.142;8.724;2024-01-07T00:35:37;7.40;99.90
19892;DHT22;10108;50.142;8.724;2024-01-07T00:38:03;7.40;99.90
19892;DHT22;10108;50.142;8.724;2024-01-07T00:40:29;7.40;99.90
19892;DHT22;10108;50.142;8.724;2024-01-07T00:42:55;7.40;99.90
19892;DHT22;10108;50.142;8.724;2024-01-07T00:45:22;7.40;99.90
19892;DHT22;10108;50.142;8.724;2024-01-07T00:47:48;7.40;99.90
19892;DHT22;10108;50.142;8.724;2024-01-07T00:50:14;7.40;99.90
19892;DHT22;10108;50.142;8.724;2024-01-07T00:52:41;7.30;99.90
19892;DHT22;10108;50.142;8.724;2024-01-07T00:55:09;7.30;99.90
19892;DHT22;10108;50.142;8.724;2024-01-07T00:57:35;7.30;99.90
19892;DHT22;10108;50.142;8.724;2024-01-07T01:00:05;7.30;99.90
19892;DHT22;10108;50.142;8.724;2024-01-07T01:02:32;7.20;99.90
19892;DHT22;10108;50.142;8.724;2024-01-07T01:04:58;7.20;99.90
19892;DHT22;10108;50.142;8.724;2024-01-07T01:07:24;7.20;99.90
19892;DHT22;10108;50.142;8.724;2024-01-07T01:09:50;7.20;99.90
19892;DHT22;10108;50.142;8.724;2024-01-07T01:12:16;7.30;99.90
19892;DHT22;10108;50.142;8.724;2024-01-07T01:14:42;7.30;99.90
19892;DHT22;10108;50.142;8.724;2024-01-07T01:17:09;7.30;99.90
19892;DHT22;10108;50.142;8.724;2024-01-07T01:19:35;7.30;99.90
19892;DHT22;10108;50.142;8.724;2024-01-07T01:22:01;7.30;99.90
19892;DHT22;10108;50.142;8.724;2024-01-07T01:24:27;7.30;99.90
19892;DHT22;10108;50.142;8.724;2024-01-07T01:26:53;7.30;99.90
19892;DHT22;10108;50.142;8.724;2024-01-07T01:29:19;7.30;99.90
19892;DHT22;10108;50.142;8.724;2024-01-07T01:31:45;7.30;99.90
19892;DHT22;10108;50.142;8.724;2024-01-07T01:34:13;7.30;99.90
19892;DHT22;10108;50.142;8.724;2024-01-07T01:36:39;7.30;99.90
19892;DHT22;10108;50.142;8.724;2024-01-07T01:39:05;7.20;99.90
19892;DHT22;10108;50.142;8.724;2024-01-07T01:41:32;7.20;99.90
19892;DHT22;10108;50.142;8.724;2024-01-07T01:44:00;7.20;99.90
19892;DHT22;10108;50.142;8.724;2024-01-07T01:46:26;7.30;99.90
19892;DHT22;10108;50.142;8.724;2024-01-07T01:48:54;7.30;99.90
19892;DHT22;10108;50.142;8.724;2024-01-07T01:51:21;7.30;99.90
19892;DHT22;10108;50.142;8.724;2024-01-07T01:53:49;7.30;99.90
19892;DHT22;10108;50.142;8.724;2024-01-07T01:56:18;7.20;99.90
19892;DHT22;10108;50.142;8.724;2024-01-07T01:58:46;7.20;99.90
19892;DHT22;10108;50.142;8.724;2024-01-07T02:01:13;7.10;99.90
19892;DHT22;10108;50.142;8.724;2024-01-07T02:03:40;7.10;99.90
19892;DHT22;10108;50.142;8.724;2024-01-07T02:06:06;7.10;99.90
19892;DHT22;10108;50.142;8.724;2024-01-07T02:08:33;7.10;99.90
19892;DHT22;10108;50.142;8.724;2024-01-07T02:11:17;7.00;99.90
19892;DHT22;10108;50.142;8.724;2024-01-07T02:13:43;7.00;99.90
19892;DHT22;10108;50.142;8.724;2024-01-07T02:16:10;7.00;99.90
19892;DHT22;10108;50.142;8.724;2024-01-07T02:18:42;7.00;99.90
19892;DHT22;10108;50.142;8.724;2024-01-07T02:21:09;7.00;99.90
19892;DHT22;10108;50.142;8.724;2024-01-07T02:23:36;7.00;99.90
19892;DHT22;10108;50.142;8.724;2024-01-07T02:26:02;7.00;99.90
19892;DHT22;10108;50.142;8.724;2024-01-07T02:28:30;7.00;99.90
19892;DHT22;10108;50.142;8.724;2024-01-07T02:30:56;7.00;99.90
19892;DHT22;10108;50.142;8.724;2024-01-07T02:33:22;7.00;99.90
19892;DHT22;10108;50.142;8.724;2024-01-07T02:35:48;7.00;99.90
19892;DHT22;10108;50.142;8.724;2024-01-07T02:38:15;7.00;99.90
19892;DHT22;10108;50.142;8.724;2024-01-07T02:40:41;7.00;99.90
19892;DHT22;10108;50.142;8.724;2024-01-07T02:43:08;7.00;99.90
19892;DHT22;10108;50.142;8.724;2024-01-07T02:45:34;7.00;99.90
19892;DHT22;10108;50.142;8.724;2024-01-07T02:48:01;7.00;99.90
19892;DHT22;10108;50.142;8.724;2024-01-07T02:50:27;7.00;99.90
19892;DHT22;10108;50.142;8.724;2024-01-07T02:52:53;7.00;99.90
19892;DHT22;10108;50.142;8.724;2024-01-07T02:55:20;7.00;99.90
19892;DHT22;10108;50.142;8.724;2024-01-07T02:57:46;7.00;99.90
19892;DHT22;10108;50.142;8.724;2024-01-07T03:00:12;6.90;99.90
19892;DHT22;10108;50.142;8.724;2024-01-07T03:02:38;6.90;99.90
19892;DHT22;10108;50.142;8.724;2024-01-07T03:05:05;6.90;99.90
19892;DHT22;10108;50.142;8.724;2024-01-07T03:07:31;6.90;99.90
19892;DHT22;10108;50.142;8.724;2024-01-07T03:09:57;7.00;99.90
19892;DHT22;10108;50.142;8.724;2024-01-07T03:12:23;7.00;99.90
19892;DHT22;10108;50.142;8.724;2024-01-07T03:14:49;7.00;99.90
19892;DHT22;10108;50.142;8.724;2024-01-07T03:17:15;6.90;99.90
19892;DHT22;10108;50.142;8.724;2024-01-07T03:19:43;6.90;99.90
19892;DHT22;10108;50.142;8.724;2024-01-07T03:22:09;6.90;99.90
19892;DHT22;10108;50.142;8.724;2024-01-07T03:24:35;6.90;99.90
19892;DHT22;10108;50.142;8.724;2024-01-07T03:27:01;6.90;99.90
19892;DHT22;10108;50.142;8.724;2024-01-07T03:29:27;6.80;99.90
19892;DHT22;10108;50.142;8.724;2024-01-07T03:31:53;6.80;99.90
19892;DHT22;10108;50.142;8.724;2024-01-07T03:34:20;6.80;99.90
19892;DHT22;10108;50.142;8.724;2024-01-07T03:36:46;6.80;99.90
19892;DHT22;10108;50.142;8.724;2024-01-07T03:39:12;6.70;99.90
19892;DHT22;10108;50.142;8.724;2024-01-07T03:41:38;6.70;99.90
19892;DHT22;10108;50.142;8.724;2024-01-07T03:44:04;6.70;99.90
19892;DHT22;10108;50.142;8.724;2024-01-07T03:46:30;6.80;99.90
19892;DHT22;10108;50.142;8.724;2024-01-07T03:48:56;6.80;99.90
19892;DHT22;10108;50.142;8.724;2024-01-07T03:51:22;6.80;99.90
19892;DHT22;10108;50.142;8.724;2024-01-07T03:53:48;6.90;99.90
19892;DHT22;10108;50.142;8.724;2024-01-07T03:56:15;6.90;99.90
19892;DHT22;10108;50.142;8.724;2024-01-07T03:58:41;6.90;99.90
19892;DHT22;10108;50.142;8.724;2024-01-07T04:01:07;7.00;99.90
19892;DHT22;10108;50.142;8.724;2024-01-07T04:03:34;6.90;99.90
19892;DHT22;10108;50.142;8.724;2024-01-07T04:06:00;7.00;99.90
19892;DHT22;10108;50.142;8.724;2024-01-07T04:08:26;6.90;99.90
19892;DHT22;10108;50.142;8.724;2024-01-07T04:10:53;6.90;99.90
19892;DHT22;10108;50.142;8.724;2024-01-07T04:13:19;7.00;99.90
19892;DHT22;10108;50.142;8.724;2024-01-07T04:15:45;7.00;99.90
19892;DHT22;10108;50.142;8.724;2024-01-07T04:18:11;7.00;99.90
19892;DHT22;10108;50.142;8.724;2024-01-07T04:20:37;7.00;99.90
19892;DHT22;10108;50.142;8.724;2024-01-07T04:23:03;7.00;99.90
19892;DHT22;10108;50.142;8.724;2024-01-07T04:25:30;7.00;99.90
19892;DHT22;10108;50.142;8.724;2024-01-07T04:27:56;7.10;99.90
19892;DHT22;10108;50.142;8.724;2024-01-07T04:30:22;7.00;99.90
19892;DHT22;10108;50.142;8.724;2024-01-07T04:32:48;7.00;99.90
19892;DHT22;10108;50.142;8.724;2024-01-07T04:35:14;7.10;99.90
19892;DHT22;10108;50.142;8.724;2024-01-07T04:37:41;7.10;99.90
19892;DHT22;10108;50.142;8.724;2024-01-07T04:40:08;7.00;99.90
19892;DHT22;10108;50.142;8.724;2024-01-07T04:42:34;7.00;99.90
19892;DHT22;10108;50.142;8.724;2024-01-07T04:45:00;7.00;99.90
19892;DHT22;10108;50.142;8.724;2024-01-07T04:47:30;6.90;99.90
19892;DHT22;10108;50.142;8.724;2024-01-07T04:49:57;7.00;99.90
19892;DHT22;10108;50.142;8.724;2024-01-07T04:52:24;7.00;99.90
19892;DHT22;10108;50.142;8.724;2024-01-07T04:54:51;6.90;99.90
19892;DHT22;10108;50.142;8.724;2024-01-07T04:57:18;6.90;99.90
19892;DHT22;10108;50.142;8.724;2024-01-07T04:59:44;6.90;99.90
19892;DHT22;10108;50.142;8.724;2024-01-07T05:02:11;7.00;99.90
19892;DHT22;10108;50.142;8.724;2024-01-07T05:04:37;7.00;99.90
19892;DHT22;10108;50.142;8.724;2024-01-07T05:07:03;7.00;99.90
19892;DHT22;10108;50.142;8.724;2024-01-07T05:09:30;7.00;99.90
19892;DHT22;10108;50.142;8.724;2024-01-07T05:11:56;7.00;99.90
19892;DHT22;10108;50.142;8.724;2024-01-07T05:14:23;7.00;99.90
19892;DHT22;10108;50.142;8.724;2024-01-07T05:16:49;7.00;99.90
19892;DHT22;10108;50.142;8.724;2024-01-07T05:19:15;7.00;99.90
19892;DHT22;10108;50.142;8.724;2024-01-07T05:21:41;7.00;99.90
19892;DHT22;10108;50.142;8.724;2024-01-07T05:24:07;7.00;99.90
19892;DHT22;10108;50.142;8.724;2024-01-07T05:26:44;7.00;99.90
19892;DHT22;10108;50.142;8.724;2024-01-07T05:29:11;7.00;99.90
19892;DHT22;10108;50.142;8.724;2024-01-07T05:31:41;7.00;99.90
19892;DHT22;10108;50.142;8.724;2024-01-07T05:34:08;7.00;99.90
19892;DHT22;10108;50.142;8.724;2024-01-07T05:36:34;7.00;99.90
19892;DHT22;10108;50.142;8.724;2024-01-07T05:39:00;6.90;99.90
19892;DHT22;10108;50.142;8.724;2024-01-07T05:41:26;6.90;99.90
19892;DHT22;10108;50.142;8.724;2024-01-07T05:43:52;6.90;99.90
19892;DHT22;10108;50.142;8.724;2024-01-07T05:46:19;6.80;99.90
19892;DHT22;10108;50.142;8.724;2024-01-07T05:48:49;6.80;99.90
19892;DHT22;10108;50.142;8.724;2024-01-07T05:51:16;6.80;99.90
19892;DHT22;10108;50.142;8.724;2024-01-07T05:53:43;6.80;99.90
19892;DHT22;10108;50.142;8.724;2024-01-07T05:56:10;6.80;99.90
19892;DHT22;10108;50.142;8.724;2024-01-07T05:58:36;6.80;99.90
19892;DHT22;10108;50.142;8.724;2024-01-07T06:01:02;6.80;99.90
19892;DHT22;10108;50.142;8.724;2024-01-07T06:03:29;6.70;99.90
19892;DHT22;10108;50.142;8.724;2024-01-07T06:05:55;6.70;99.90
19892;DHT22;10108;50.142;8.724;2024-01-07T06:08:21;6.70;99.90
19892;DHT22;10108;50.142;8.724;2024-01-07T06:10:47;6.70;99.90
19892;DHT22;10108;50.142;8.724;2024-01-07T06:13:13;6.60;99.90
19892;DHT22;10108;50.142;8.724;2024-01-07T06:15:39;6.60;99.90
19892;DHT22;10108;50.142;8.724;2024-01-07T06:18:05;6.60;99.90
19892;DHT22;10108;50.142;8.724;2024-01-07T06:20:32;6.60;99.90
19892;DHT22;10108;50.142;8.724;2024-01-07T06:22:58;6.50;99.90
19892;DHT22;10108;50.142;8.724;2024-01-07T06:25:24;6.50;99.90
19892;DHT22;10108;50.142;8.724;2024-01-07T06:27:52;6.50;99.90
19892;DHT22;10108;50.142;8.724;2024-01-07T06:30:18;6.50;99.90
19892;DHT22;10108;50.142;8.724;2024-01-07T06:32:45;6.50;99.90
19892;DHT22;10108;50.142;8.724;2024-01-07T06:35:11;6.50;99.90
19892;DHT22;10108;50.142;8.724;2024-01-07T06:37:37;6.50;99.90
19892;DHT22;10108;50.142;8.724;2024-01-07T06:40:04;6.50;99.90
19892;DHT22;10108;50.142;8.724;2024-01-07T06:42:30;6.50;99.90
19892;DHT22;10108;50.142;8.724;2024-01-07T06:44:56;6.50;99.90
19892;DHT22;10108;50.142;8.724;2024-01-07T06:47:22;6.50;99.90
19892;DHT22;10108;50.142;8.724;2024-01-07T06:49:48;6.50;99.90
19892;DHT22;10108;50.142;8.724;2024-01-07T06:52:15;6.50;99.90
19892;DHT22;10108;50.142;8.724;2024-01-07T06:54:41;6.50;99.90
19892;DHT22;10108;50.142;8.724;2024-01-07T06:57:07;6.50;99.90
19892;DHT22;10108;50.142;8.724;2024-01-07T06:59:33;6.50;99.90
19892;DHT22;10108;50.142;8.724;2024-01-07T07:01:59;6.40;99.90
19892;DHT22;10108;50.142;8.724;2024-01-07T07:04:25;6.40;99.90
19892;DHT22;10108;50.142;8.724;2024-01-07T07:06:51;6.40;99.90
19892;DHT22;10108;50.142;8.724;2024-01-07T07:09:17;6.40;99.90
19892;DHT22;10108;50.142;8.724;2024-01-07T07:11:43;6.40;99.90
19892;DHT22;10108;50.142;8.724;2024-01-07T07:14:10;6.40;99.90
19892;DHT22;10108;50.142;8.724;2024-01-07T07:16:36;6.30;99.90
19892;DHT22;10108;50.142;8.724;2024-01-07T07:19:02;6.30;99.90
19892;DHT22;10108;50.142;8.724;2024-01-07T07:21:28;6.30;99.90
19892;DHT22;10108;50.142;8.724;2024-01-07T07:23:54;6.30;99.90
19892;DHT22;10108;50.142;8.724;2024-01-07T07:26:20;6.20;99.90
19892;DHT22;10108;50.142;8.724;2024-01-07T07:28:47;6.20;99.90
19892;DHT22;10108;50.142;8.724;2024-01-07T07:31:13;6.20;99.90
19892;DHT22;10108;50.142;8.724;2024-01-07T07:33:39;6.20;99.90
19892;DHT22;10108;50.142;8.724;2024-01-07T07:36:06;6.20;99.90
19892;DHT22;10108;50.142;8.724;2024-01-07T07:38:32;6.30;99.90
19892;DHT22;10108;50.142;8.724;2024-01-07T07:40:59;6.30;99.90
19892;DHT22;10108;50.142;8.724;2024-01-07T07:43:26;6.30;99.90
19892;DHT22;10108;50.142;8.724;2024-01-07T07:45:52;6.40;99.90
19892;DHT22;10108;50.142;8.724;2024-01-07T07:48:19;6.40;99.90
19892;DHT22;10108;50.142;8.724;2024-01-07T07:50:45;6.40;99.90
19892;DHT22;10108;50.142;8.724;2024-01-07T07:53:11;6.30;99.90
19892;DHT22;10108;50.142;8.724;2024-01-07T07:55:37;6.30;99.90
19892;DHT22;10108;50.142;8.724;2024-01-07T07:58:03;6.30;99.90
19892;DHT22;10108;50.142;8.724;2024-01-07T08:00:29;6.30;99.90
19892;DHT22;10108;50.142;8.724;2024-01-07T08:02:56;6.40;99.90
19892;DHT22;10108;50.142;8.724;2024-01-07T08:05:22;6.40;99.90
19892;DHT22;10108;50.142;8.724;2024-01-07T08:07:48;6.40;99.90
19892;DHT22;10108;50.142;8.724;2024-01-07T08:10:14;6.40;99.90
19892;DHT22;10108;50.142;8.724;2024-01-07T08:12:40;6.40;99.90
19892;DHT22;10108;50.142;8.724;2024-01-07T08:15:07;6.40;99.90
19892;DHT22;10108;50.142;8.724;2024-01-07T08:17:33;6.30;99.90
19892;DHT22;10108;50.142;8.724;2024-01-07T08:19:59;6.30;99.90
19892;DHT22;10108;50.142;8.724;2024-01-07T08:22:27;6.30;99.90
19892;DHT22;10108;50.142;8.724;2024-01-07T08:24:53;6.30;99.90
19892;DHT22;10108;50.142;8.724;2024-01-07T08:27:20;6.20;99.90
19892;DHT22;10108;50.142;8.724;2024-01-07T08:29:46;6.30;99.90
19892;DHT22;10108;50.142;8.724;2024-01-07T08:32:12;6.20;99.90
19892;DHT22;10108;50.142;8.724;2024-01-07T08:34:38;6.20;99.90
19892;DHT22;10108;50.142;8.724;2024-01-07T08:37:07;6.20;99.90
19892;DHT22;10108;50.142;8.724;2024-01-07T08:39:34;6.20;99.90
19892;DHT22;10108;50.142;8.724;2024-01-07T08:42:01;6.20;99.90
19892;DHT22;10108;50.142;8.724;2024-01-07T08:44:27;6.20;99.90
19892;DHT22;10108;50.142;8.724;2024-01-07T08:46:53;6.20;99.90
19892;DHT22;10108;50.142;8.724;2024-01-07T08:49:19;6.30;99.90
19892;DHT22;10108;50.142;8.724;2024-01-07T08:51:46;6.30;99.90
19892;DHT22;10108;50.142;8.724;2024-01-07T08:54:12;6.30;99.90
19892;DHT22;10108;50.142;8.724;2024-01-07T08:56:38;6.30;99.90
19892;DHT22;10108;50.142;8.724;2024-01-07T08:59:05;6.30;99.90
19892;DHT22;10108;50.142;8.724;2024-01-07T09:01:31;6.20;99.90
19892;DHT22;10108;50.142;8.724;2024-01-07T09:03:57;6.20;99.90
19892;DHT22;10108;50.142;8.724;2024-01-07T09:06:23;6.20;99.90
19892;DHT22;10108;50.142;8.724;2024-01-07T09:08:50;6.20;99.90
19892;DHT22;10108;50.142;8.724;2024-01-07T09:11:19;6.30;99.90
19892;DHT22;10108;50.142;8.724;2024-01-07T09:13:45;6.30;99.90
19892;DHT22;10108;50.142;8.724;2024-01-07T09:16:14;6.30;99.90
19892;DHT22;10108;50.142;8.724;2024-01-07T09:18:41;6.30;99.90
19892;DHT22;10108;50.142;8.724;2024-01-07T09:21:10;6.30;99.90
19892;DHT22;10108;50.142;8.724;2024-01-07T09:23:36;6.30;99.90
19892;DHT22;10108;50.142;8.724;2024-01-07T09:26:02;6.40;99.90
19892;DHT22;10108;50.142;8.724;2024-01-07T09:28:28;6.30;99.90
19892;DHT22;10108;50.142;8.724;2024-01-07T09:30:54;6.20;99.90
19892;DHT22;10108;50.142;8.724;2024-01-07T09:33:20;6.20;99.90
19892;DHT22;10108;50.142;8.724;2024-01-07T09:35:50;6.20;99.90
19892;DHT22;10108;50.142;8.724;2024-01-07T09:38:16;6.20;99.90
19892;DHT22;10108;50.142;8.724;2024-01-07T09:40:42;6.20;99.90
19892;DHT22;10108;50.142;8.724;2024-01-07T09:43:09;6.20;99.90
19892;DHT22;10108;50.142;8.724;2024-01-07T09:45:36;6.20;99.90
19892;DHT22;10108;50.142;8.724;2024-01-07T09:48:04;6.20;99.90
19892;DHT22;10108;50.142;8.724;2024-01-07T09:50:31;6.20;99.90
19892;DHT22;10108;50.142;8.724;2024-01-07T09:52:58;6.20;99.90
19892;DHT22;10108;50.142;8.724;2024-01-07T09:55:42;6.30;99.90
19892;DHT22;10108;50.142;8.724;2024-01-07T09:58:12;6.20;99.90
19892;DHT22;10108;50.142;8.724;2024-01-07T10:00:38;6.30;99.90
19892;DHT22;10108;50.142;8.724;2024-01-07T10:03:05;6.30;99.90
19892;DHT22;10108;50.142;8.724;2024-01-07T10:05:32;6.20;99.90
19892;DHT22;10108;50.142;8.724;2024-01-07T10:07:58;6.20;99.90
19892;DHT22;10108;50.142;8.724;2024-01-07T10:10:24;6.20;99.90
19892;DHT22;10108;50.142;8.724;2024-01-07T10:12:50;6.20;99.90
19892;DHT22;10108;50.142;8.724;2024-01-07T10:15:18;6.20;99.90
19892;DHT22;10108;50.142;8.724;2024-01-07T10:17:46;6.20;99.90
19892;DHT22;10108;50.142;8.724;2024-01-07T10:20:12;6.20;99.90
19892;DHT22;10108;50.142;8.724;2024-01-07T10:22:39;6.30;99.90
19892;DHT22;10108;50.142;8.724;2024-01-07T10:25:05;6.30;99.90
19892;DHT22;10108;50.142;8.724;2024-01-07T10:27:36;6.30;99.90
19892;DHT22;10108;50.142;8.724;2024-01-07T10:30:02;6.20;99.90
19892;DHT22;10108;50.142;8.724;2024-01-07T10:32:29;6.20;99.90
19892;DHT22;10108;50.142;8.724;2024-01-07T10:35:04;6.20;99.90
19892;DHT22;10108;50.142;8.724;2024-01-07T10:37:31;6.20;99.90
19892;DHT22;10108;50.142;8.724;2024-01-07T10:39:58;6.10;99.90
19892;DHT22;10108;50.142;8.724;2024-01-07T10:42:31;6.10;99.90
19892;DHT22;10108;50.142;8.724;2024-01-07T10:47:29;6.10;99.90
19892;DHT22;10108;50.142;8.724;2024-01-07T10:49:57;6.10;99.90
19892;DHT22;10108;50.142;8.724;2024-01-07T10:52:25;6.10;99.90
19892;DHT22;10108;50.142;8.724;2024-01-07T10:54:53;6.10;99.90
19892;DHT22;10108;50.142;8.724;2024-01-07T10:59:53;6.10;99.90
19892;DHT22;10108;50.142;8.724;2024-01-07T11:02:20;6.10;99.90
19892;DHT22;10108;50.142;8.724;2024-01-07T11:05:02;6.00;99.90
19892;DHT22;10108;50.142;8.724;2024-01-07T11:07:49;6.00;99.90
19892;DHT22;10108;50.142;8.724;2024-01-07T11:10:26;6.10;99.90
19892;DHT22;10108;50.142;8.724;2024-01-07T11:12:57;6.10;99.90
19892;DHT22;10108;50.142;8.724;2024-01-07T11:18:18;6.20;99.90
19892;DHT22;10108;50.142;8.724;2024-01-07T11:20:46;6.20;99.90
19892;DHT22;10108;50.142;8.724;2024-01-07T11:23:31;6.20;99.90
19892;DHT22;10108;50.142;8.724;2024-01-07T11:26:03;6.20;99.90
19892;DHT22;10108;50.142;8.724;2024-01-07T11:28:45;6.20;99.90
19892;DHT22;10108;50.142;8.724;2024-01-07T11:31:16;6.20;99.90
19892;DHT22;10108;50.142;8.724;2024-01-07T11:33:44;6.20;99.90
19892;DHT22;10108;50.142;8.724;2024-01-07T11:36:12;6.20;99.90
19892;DHT22;10108;50.142;8.724;2024-01-07T11:38:49;6.20;99.90
19892;DHT22;10108;50.142;8.724;2024-01-07T11:41:16;6.20;99.90
19892;DHT22;10108;50.142;8.724;2024-01-07T11:43:57;6.30;99.90
19892;DHT22;10108;50.142;8.724;2024-01-07T11:46:28;6.20;99.90
19892;DHT22;10108;50.142;8.724;2024-01-07T11:48:56;6.30;99.90
19892;DHT22;10108;50.142;8.724;2024-01-07T11:51:29;6.20;99.90
19892;DHT22;10108;50.142;8.724;2024-01-07T11:53:59;6.20;99.90
19892;DHT22;10108;50.142;8.724;2024-01-07T11:56:26;6.20;99.90
19892;DHT22;10108;50.142;8.724;2024-01-07T11:58:52;6.20;99.90
19892;DHT22;10108;50.142;8.724;2024-01-07T12:01:18;6.20;99.90
19892;DHT22;10108;50.142;8.724;2024-01-07T12:03:45;6.20;99.90
19892;DHT22;10108;50.142;8.724;2024-01-07T12:06:12;6.20;99.90
19892;DHT22;10108;50.142;8.724;2024-01-07T12:08:43;6.20;99.90
19892;DHT22;10108;50.142;8.724;2024-01-07T12:11:11;6.20;99.90
19892;DHT22;10108;50.142;8.724;2024-01-07T12:13:39;6.10;99.90
19892;DHT22;10108;50.142;8.724;2024-01-07T12:16:06;6.10;99.90
19892;DHT22;10108;50.142;8.724;2024-01-07T12:18:33;6.10;99.90
19892;DHT22;10108;50.142;8.724;2024-01-07T12:21:00;6.00;99.90
19892;DHT22;10108;50.142;8.724;2024-01-07T12:23:26;6.00;99.90
19892;DHT22;10108;50.142;8.724;2024-01-07T12:25:53;6.00;99.90
19892;DHT22;10108;50.142;8.724;2024-01-07T12:28:19;6.00;99.90
19892;DHT22;10108;50.142;8.724;2024-01-07T12:30:48;6.00;99.90
19892;DHT22;10108;50.142;8.724;2024-01-07T12:33:19;6.00;99.90
19892;DHT22;10108;50.142;8.724;2024-01-07T12:35:48;6.00;99.90
19892;DHT22;10108;50.142;8.724;2024-01-07T12:38:14;6.00;99.90
19892;DHT22;10108;50.142;8.724;2024-01-07T12:40:41;6.00;99.90
19892;DHT22;10108;50.142;8.724;2024-01-07T12:43:07;6.00;99.90
19892;DHT22;10108;50.142;8.724;2024-01-07T12:45:33;5.90;99.90
19892;DHT22;10108;50.142;8.724;2024-01-07T12:47:59;5.90;99.90
19892;DHT22;10108;50.142;8.724;2024-01-07T12:50:28;5.90;99.90
19892;DHT22;10108;50.142;8.724;2024-01-07T12:52:56;5.90;99.90
19892;DHT22;10108;50.142;8.724;2024-01-07T12:55:23;5.90;99.90
19892;DHT22;10108;50.142;8.724;2024-01-07T12:57:49;5.80;99.90
19892;DHT22;10108;50.142;8.724;2024-01-07T13:00:15;5.80;99.90
19892;DHT22;10108;50.142;8.724;2024-01-07T13:02:42;5.70;99.90
19892;DHT22;10108;50.142;8.724;2024-01-07T13:05:08;5.70;99.90
19892;DHT22;10108;50.142;8.724;2024-01-07T13:07:35;5.70;99.90
19892;DHT22;10108;50.142;8.724;2024-01-07T13:10:01;5.80;99.90
19892;DHT22;10108;50.142;8.724;2024-01-07T13:12:27;5.70;99.90
19892;DHT22;10108;50.142;8.724;2024-01-07T13:14:53;5.70;99.90
19892;DHT22;10108;50.142;8.724;2024-01-07T13:17:19;5.70;99.90
19892;DHT22;10108;50.142;8.724;2024-01-07T13:19:46;5.70;99.90
19892;DHT22;10108;50.142;8.724;2024-01-07T13:22:12;5.70;99.90
19892;DHT22;10108;50.142;8.724;2024-01-07T13:24:39;5.60;99.90
19892;DHT22;10108;50.142;8.724;2024-01-07T13:27:07;5.60;99.90
19892;DHT22;10108;50.142;8.724;2024-01-07T13:29:34;5.60;99.90
19892;DHT22;10108;50.142;8.724;2024-01-07T13:32:01;5.70;99.90
19892;DHT22;10108;50.142;8.724;2024-01-07T13:34:27;5.70;99.90
19892;DHT22;10108;50.142;8.724;2024-01-07T13:36:53;5.70;99.90
19892;DHT22;10108;50.142;8.724;2024-01-07T13:39:20;5.70;99.90
19892;DHT22;10108;50.142;8.724;2024-01-07T13:41:47;5.70;99.90
19892;DHT22;10108;50.142;8.724;2024-01-07T13:44:14;5.70;99.90
19892;DHT22;10108;50.142;8.724;2024-01-07T13:46:46;5.70;99.90
19892;DHT22;10108;50.142;8.724;2024-01-07T13:49:13;5.70;99.90
19892;DHT22;10108;50.142;8.724;2024-01-07T13:51:42;5.70;99.90
19892;DHT22;10108;50.142;8.724;2024-01-07T13:54:08;5.70;99.90
19892;DHT22;10108;50.142;8.724;2024-01-07T13:56:41;5.70;99.90
19892;DHT22;10108;50.142;8.724;2024-01-07T13:59:11;5.70;99.90
19892;DHT22;10108;50.142;8.724;2024-01-07T14:01:37;5.60;99.90
19892;DHT22;10108;50.142;8.724;2024-01-07T14:04:05;5.60;99.90
19892;DHT22;10108;50.142;8.724;2024-01-07T14:06:31;5.60;99.90
19892;DHT22;10108;50.142;8.724;2024-01-07T14:08:57;5.60;99.90
19892;DHT22;10108;50.142;8.724;2024-01-07T14:11:24;5.60;99.90
19892;DHT22;10108;50.142;8.724;2024-01-07T14:13:52;5.60;99.90
19892;DHT22;10108;50.142;8.724;2024-01-07T14:16:18;5.50;99.90
19892;DHT22;10108;50.142;8.724;2024-01-07T14:18:44;5.60;99.90
19892;DHT22;10108;50.142;8.724;2024-01-07T14:21:11;5.60;99.90
19892;DHT22;10108;50.142;8.724;2024-01-07T14:23:37;5.50;99.90
19892;DHT22;10108;50.142;8.724;2024-01-07T14:26:03;5.50;99.90
19892;DHT22;10108;50.142;8.724;2024-01-07T14:28:30;5.50;99.90
19892;DHT22;10108;50.142;8.724;2024-01-07T14:30:56;5.50;99.90
19892;DHT22;10108;50.142;8.724;2024-01-07T14:33:23;5.50;99.90
19892;DHT22;10108;50.142;8.724;2024-01-07T14:35:49;5.40;99.40
19892;DHT22;10108;50.142;8.724;2024-01-07T14:38:16;5.30;99.30
19892;DHT22;10108;50.142;8.724;2024-01-07T14:40:42;5.20;99.50
19892;DHT22;10108;50.142;8.724;2024-01-07T14:43:12;5.10;99.30
19892;DHT22;10108;50.142;8.724;2024-01-07T14:45:38;5.10;99.80
19892;DHT22;10108;50.142;8.724;2024-01-07T14:48:05;5.00;99.70
19892;DHT22;10108;50.142;8.724;2024-01-07T14:50:31;5.00;98.90
19892;DHT22;10108;50.142;8.724;2024-01-07T14:52:57;4.90;99.20
19892;DHT22;10108;50.142;8.724;2024-01-07T14:55:23;4.90;99.40
19892;DHT22;10108;50.142;8.724;2024-01-07T14:57:50;4.80;98.90
19892;DHT22;10108;50.142;8.724;2024-01-07T15:00:16;4.80;98.70
19892;DHT22;10108;50.142;8.724;2024-01-07T15:02:43;4.80;98.30
19892;DHT22;10108;50.142;8.724;2024-01-07T15:05:09;4.80;98.50
19892;DHT22;10108;50.142;8.724;2024-01-07T15:07:35;4.80;98.40
19892;DHT22;10108;50.142;8.724;2024-01-07T15:10:01;4.70;97.90
19892;DHT22;10108;50.142;8.724;2024-01-07T15:12:28;4.70;98.10
19892;DHT22;10108;50.142;8.724;2024-01-07T15:15:04;4.70;98.00
19892;DHT22;10108;50.142;8.724;2024-01-07T15:17:32;4.60;98.00
19892;DHT22;10108;50.142;8.724;2024-01-07T15:19:58;4.60;97.70
19892;DHT22;10108;50.142;8.724;2024-01-07T15:22:24;4.50;97.20
19892;DHT22;10108;50.142;8.724;2024-01-07T15:24:50;4.50;97.00
19892;DHT22;10108;50.142;8.724;2024-01-07T15:27:18;4.40;97.00
19892;DHT22;10108;50.142;8.724;2024-01-07T15:29:44;4.40;97.60
19892;DHT22;10108;50.142;8.724;2024-01-07T15:32:11;4.30;97.20
19892;DHT22;10108;50.142;8.724;2024-01-07T15:34:37;4.30;96.90
19892;DHT22;10108;50.142;8.724;2024-01-07T15:37:03;4.20;96.90
19892;DHT22;10108;50.142;8.724;2024-01-07T15:39:29;4.20;97.30
19892;DHT22;10108;50.142;8.724;2024-01-07T15:41:55;4.20;97.20
19892;DHT22;10108;50.142;8.724;2024-01-07T15:44:23;4.30;97.00
19892;DHT22;10108;50.142;8.724;2024-01-07T15:46:49;4.30;97.40
19892;DHT22;10108;50.142;8.724;2024-01-07T15:49:15;4.30;96.60
19892;DHT22;10108;50.142;8.724;2024-01-07T15:51:41;4.30;96.60